sensor_id;sensor_type;location;lat;lon;timestamp;temperature;humidity
4052;DHT22;2040;50.924;11.604;2023-02-01T00:00:33;4.30;99.90
4052;DHT22;2040;50.924;11.604;2023-02-01T00:03:00;4.40;99.90
4052;DHT22;2040;50.924;11.604;2023-02-01T00:05:25;4.30;99.90
4052;DHT22;2040;50.924;11.604;2023-02-01T00:07:51;4.30;99.90
4052;DHT22;2040;50.924;11.604;2023-02-01T00:10:17;4.30;99.90
4052;DHT22;2040;50.924;11.604;2023-02-01T00:12:43;4.30;99.90
4052;DHT22;2040;50.924;11.604;2023-02-01T00:15:09;4.30;99.90
4052;DHT22;2040;50.924;11.604;2023-02-01T00:17:35;4.30;99.90
4052;DHT22;2040;50.924;11.604;2023-02-01T00:20:01;4.30;99.90
4052;DHT22;2040;50.924;11.604;2023-02-01T00:22:26;4.20;99.90
4052;DHT22;2040;50.924;11.604;2023-02-01T00:24:52;4.20;99.90
4052;DHT22;2040;50.924;11.604;2023-02-01T00:27:17;4.20;99.90
4052;DHT22;2040;50.924;11.604;2023-02-01T00:29:45;4.10;99.90
4052;DHT22;2040;50.924;11.604;2023-02-01T00:32:11;4.10;99.90
4052;DHT22;2040;50.924;11.604;2023-02-01T00:34:37;4.00;99.90
4052;DHT22;2040;50.924;11.604;2023-02-01T00:37:02;4.20;99.90
4052;DHT22;2040;50.924;11.604;2023-02-01T00:39:28;4.10;99.90
4052;DHT22;2040;50.924;11.604;2023-02-01T00:41:53;4.20;99.90
4052;DHT22;2040;50.924;11.604;2023-02-01T00:44:19;4.10;99.90
4052;DHT22;2040;50.924;11.604;2023-02-01T00:46:44;4.10;99.90
4052;DHT22;2040;50.924;11.604;2023-02-01T00:49:10;4.10;99.90
4052;DHT22;2040;50.924;11.604;2023-02-01T00:51:36;4.10;99.90
4052;DHT22;2040;50.924;11.604;2023-02-01T00:54:01;4.10;99.90
4052;DHT22;2040;50.924;11.604;2023-02-01T00:56:28;4.10;99.90
4052;DHT22;2040;50.924;11.604;2023-02-01T00:58:54;4.10;99.90
4052;DHT22;2040;50.924;11.604;2023-02-01T01:01:25;4.10;99.90
4052;DHT22;2040;50.924;11.604;2023-02-01T01:03:55;4.10;99.90
4052;DHT22;2040;50.924;11.604;2023-02-01T01:06:27;4.10;99.90
4052;DHT22;2040;50.924;11.604;2023-02-01T01:08:55;4.20;99.90
4052;DHT22;2040;50.924;11.604;2023-02-01T01:11:26;4.10;99.90
4052;DHT22;2040;50.924;11.604;2023-02-01T01:13:55;4.10;99.90
4052;DHT22;2040;50.924;11.604;2023-02-01T01:16:23;4.10;99.90
4052;DHT22;2040;50.924;11.604;2023-02-01T01:18:49;4.10;99.90
4052;DHT22;2040;50.924;11.604;2023-02-01T01:21:16;4.10;99.90
4052;DHT22;2040;50.924;11.604;2023-02-01T01:23:43;4.10;99.90
4052;DHT22;2040;50.924;11.604;2023-02-01T01:26:14;4.10;99.90
4052;DHT22;2040;50.924;11.604;2023-02-01T01:28:40;4.10;99.90
4052;DHT22;2040;50.924;11.604;2023-02-01T01:31:13;4.00;99.90
4052;DHT22;2040;50.924;11.604;2023-02-01T01:33:39;4.10;99.90
4052;DHT22;2040;50.924;11.604;2023-02-01T01:36:06;4.00;99.90
4052;DHT22;2040;50.924;11.604;2023-02-01T01:38:32;4.00;99.90
4052;DHT22;2040;50.924;11.604;2023-02-01T01:40:57;4.00;99.90
4052;DHT22;2040;50.924;11.604;2023-02-01T01:43:23;4.00;99.90
4052;DHT22;2040;50.924;11.604;2023-02-01T01:45:49;4.00;99.90
4052;DHT22;2040;50.924;11.604;2023-02-01T01:48:20;4.00;99.90
4052;DHT22;2040;50.924;11.604;2023-02-01T01:51:04;3.90;99.90
4052;DHT22;2040;50.924;11.604;2023-02-01T01:53:39;4.00;99.90
4052;DHT22;2040;50.924;11.604;2023-02-01T01:56:07;3.90;99.90
4052;DHT22;2040;50.924;11.604;2023-02-01T01:58:33;3.90;99.90
4052;DHT22;2040;50.924;11.604;2023-02-01T02:00:59;3.90;99.90
4052;DHT22;2040;50.924;11.604;2023-02-01T02:03:38;3.80;99.90
4052;DHT22;2040;50.924;11.604;2023-02-01T02:06:07;3.80;99.90
4052;DHT22;2040;50.924;11.604;2023-02-01T02:08:34;3.90;99.90
4052;DHT22;2040;50.924;11.604;2023-02-01T02:10:59;3.90;99.90
4052;DHT22;2040;50.924;11.604;2023-02-01T02:13:35;3.90;99.90
4052;DHT22;2040;50.924;11.604;2023-02-01T02:16:31;3.90;99.90
4052;DHT22;2040;50.924;11.604;2023-02-01T02:25:55;3.80;99.90
4052;DHT22;2040;50.924;11.604;2023-02-01T02:29:01;3.80;99.90
4052;DHT22;2040;50.924;11.604;2023-02-01T02:31:58;3.80;99.90
4052;DHT22;2040;50.924;11.604;2023-02-01T02:34:45;3.90;99.90
4052;DHT22;2040;50.924;11.604;2023-02-01T02:42:39;3.90;99.90
4052;DHT22;2040;50.924;11.604;2023-02-01T02:45:41;3.90;99.90
4052;DHT22;2040;50.924;11.604;2023-02-01T02:51:01;3.90;99.90
4052;DHT22;2040;50.924;11.604;2023-02-01T02:54:07;3.90;99.90
4052;DHT22;2040;50.924;11.604;2023-02-01T02:56:53;3.90;99.90
4052;DHT22;2040;50.924;11.604;2023-02-01T02:59:40;3.90;99.90
4052;DHT22;2040;50.924;11.604;2023-02-01T03:02:27;3.90;99.90
4052;DHT22;2040;50.924;11.604;2023-02-01T03:05:12;3.90;99.90
4052;DHT22;2040;50.924;11.604;2023-02-01T03:07:49;3.90;99.90
4052;DHT22;2040;50.924;11.604;2023-02-01T03:13:02;3.80;99.90
4052;DHT22;2040;50.924;11.604;2023-02-01T03:15:42;3.90;99.90
4052;DHT22;2040;50.924;11.604;2023-02-01T03:18:16;3.80;99.90
4052;DHT22;2040;50.924;11.604;2023-02-01T03:20:47;3.80;99.90
4052;DHT22;2040;50.924;11.604;2023-02-01T03:23:16;3.80;99.90
4052;DHT22;2040;50.924;11.604;2023-02-01T03:25:43;3.80;99.90
4052;DHT22;2040;50.924;11.604;2023-02-01T03:28:10;3.70;99.90
4052;DHT22;2040;50.924;11.604;2023-02-01T03:30:39;3.70;99.90
4052;DHT22;2040;50.924;11.604;2023-02-01T03:33:10;3.70;99.90
4052;DHT22;2040;50.924;11.604;2023-02-01T03:35:40;3.70;99.90
4052;DHT22;2040;50.924;11.604;2023-02-01T03:40:39;3.70;99.90
4052;DHT22;2040;50.924;11.604;2023-02-01T03:43:10;3.70;99.90
4052;DHT22;2040;50.924;11.604;2023-02-01T03:45:41;3.70;99.90
4052;DHT22;2040;50.924;11.604;2023-02-01T03:48:10;3.70;99.90
4052;DHT22;2040;50.924;11.604;2023-02-01T03:50:40;3.60;99.90
4052;DHT22;2040;50.924;11.604;2023-02-01T03:53:12;3.50;99.90
4052;DHT22;2040;50.924;11.604;2023-02-01T03:55:41;3.50;99.90
4052;DHT22;2040;50.924;11.604;2023-02-01T03:58:11;3.50;99.90
4052;DHT22;2040;50.924;11.604;2023-02-01T04:00:38;3.60;99.90
4052;DHT22;2040;50.924;11.604;2023-02-01T04:03:05;3.60;99.90
4052;DHT22;2040;50.924;11.604;2023-02-01T04:05:32;3.50;99.90
4052;DHT22;2040;50.924;11.604;2023-02-01T04:07:58;3.60;99.90
4052;DHT22;2040;50.924;11.604;2023-02-01T04:10:24;3.50;99.90
4052;DHT22;2040;50.924;11.604;2023-02-01T04:12:50;3.50;99.90
4052;DHT22;2040;50.924;11.604;2023-02-01T04:15:16;3.50;99.90
4052;DHT22;2040;50.924;11.604;2023-02-01T04:17:42;3.50;99.90
4052;DHT22;2040;50.924;11.604;2023-02-01T04:20:08;3.60;99.90
4052;DHT22;2040;50.924;11.604;2023-02-01T04:22:34;3.60;99.90
4052;DHT22;2040;50.924;11.604;2023-02-01T04:25:00;3.60;99.90
4052;DHT22;2040;50.924;11.604;2023-02-01T04:27:25;3.60;99.90
4052;DHT22;2040;50.924;11.604;2023-02-01T04:29:51;3.70;99.90
4052;DHT22;2040;50.924;11.604;2023-02-01T04:32:17;3.70;99.90
4052;DHT22;2040;50.924;11.604;2023-02-01T04:34:43;3.70;99.90
4052;DHT22;2040;50.924;11.604;2023-02-01T04:37:08;3.70;99.90
4052;DHT22;2040;50.924;11.604;2023-02-01T04:39:34;3.70;99.90
4052;DHT22;2040;50.924;11.604;2023-02-01T04:41:59;3.60;99.90
4052;DHT22;2040;50.924;11.604;2023-02-01T04:44:25;3.50;99.90
4052;DHT22;2040;50.924;11.604;2023-02-01T04:46:51;3.50;99.90
4052;DHT22;2040;50.924;11.604;2023-02-01T04:49:16;3.40;99.90
4052;DHT22;2040;50.924;11.604;2023-02-01T04:51:42;3.40;99.90
4052;DHT22;2040;50.924;11.604;2023-02-01T04:54:08;3.40;99.90
4052;DHT22;2040;50.924;11.604;2023-02-01T04:56:36;3.30;99.90
4052;DHT22;2040;50.924;11.604;2023-02-01T04:59:02;3.40;99.90
4052;DHT22;2040;50.924;11.604;2023-02-01T05:01:28;3.30;99.90
4052;DHT22;2040;50.924;11.604;2023-02-01T05:03:53;3.30;99.90
4052;DHT22;2040;50.924;11.604;2023-02-01T05:06:19;3.30;99.90
4052;DHT22;2040;50.924;11.604;2023-02-01T05:08:45;3.30;99.90
4052;DHT22;2040;50.924;11.604;2023-02-01T05:11:10;3.30;99.90
4052;DHT22;2040;50.924;11.604;2023-02-01T05:13:56;3.30;99.90
4052;DHT22;2040;50.924;11.604;2023-02-01T05:16:21;3.20;99.90
4052;DHT22;2040;50.924;11.604;2023-02-01T05:18:47;3.30;99.90
4052;DHT22;2040;50.924;11.604;2023-02-01T05:21:12;3.30;99.90
4052;DHT22;2040;50.924;11.604;2023-02-01T05:23:38;3.20;99.90
4052;DHT22;2040;50.924;11.604;2023-02-01T05:26:23;3.20;99.90
4052;DHT22;2040;50.924;11.604;2023-02-01T05:28:48;3.20;99.90
4052;DHT22;2040;50.924;11.604;2023-02-01T05:31:14;3.30;99.90
4052;DHT22;2040;50.924;11.604;2023-02-01T05:33:39;3.20;99.90
4052;DHT22;2040;50.924;11.604;2023-02-01T05:36:05;3.20;99.90
4052;DHT22;2040;50.924;11.604;2023-02-01T05:38:30;3.20;99.90
4052;DHT22;2040;50.924;11.604;2023-02-01T05:40:56;3.10;99.90
4052;DHT22;2040;50.924;11.604;2023-02-01T05:43:22;3.10;99.90
4052;DHT22;2040;50.924;11.604;2023-02-01T05:45:47;3.10;99.90
4052;DHT22;2040;50.924;11.604;2023-02-01T05:48:13;3.10;99.90
4052;DHT22;2040;50.924;11.604;2023-02-01T05:50:38;3.00;99.90
4052;DHT22;2040;50.924;11.604;2023-02-01T05:53:04;3.10;99.90
4052;DHT22;2040;50.924;11.604;2023-02-01T05:55:30;3.20;99.90
4052;DHT22;2040;50.924;11.604;2023-02-01T05:57:56;3.10;99.90
4052;DHT22;2040;50.924;11.604;2023-02-01T06:00:22;3.10;99.90
4052;DHT22;2040;50.924;11.604;2023-02-01T06:02:47;3.20;99.90
4052;DHT22;2040;50.924;11.604;2023-02-01T06:05:13;3.30;99.90
4052;DHT22;2040;50.924;11.604;2023-02-01T06:07:39;3.30;99.90
4052;DHT22;2040;50.924;11.604;2023-02-01T06:10:04;3.30;99.90
4052;DHT22;2040;50.924;11.604;2023-02-01T06:12:30;3.20;99.90
4052;DHT22;2040;50.924;11.604;2023-02-01T06:14:55;3.10;99.90
4052;DHT22;2040;50.924;11.604;2023-02-01T06:17:21;3.10;99.90
4052;DHT22;2040;50.924;11.604;2023-02-01T06:19:46;3.10;99.90
4052;DHT22;2040;50.924;11.604;2023-02-01T06:22:13;3.10;99.90
4052;DHT22;2040;50.924;11.604;2023-02-01T06:24:39;3.30;99.90
4052;DHT22;2040;50.924;11.604;2023-02-01T06:27:06;3.30;99.90
4052;DHT22;2040;50.924;11.604;2023-02-01T06:29:32;3.40;99.90
4052;DHT22;2040;50.924;11.604;2023-02-01T06:31:58;3.40;99.90
4052;DHT22;2040;50.924;11.604;2023-02-01T06:34:23;3.40;99.90
4052;DHT22;2040;50.924;11.604;2023-02-01T06:36:49;3.50;99.90
4052;DHT22;2040;50.924;11.604;2023-02-01T06:39:15;3.60;99.90
4052;DHT22;2040;50.924;11.604;2023-02-01T06:41:42;3.70;99.90
4052;DHT22;2040;50.924;11.604;2023-02-01T06:44:08;3.70;99.90
4052;DHT22;2040;50.924;11.604;2023-02-01T06:46:33;3.70;99.90
4052;DHT22;2040;50.924;11.604;2023-02-01T06:48:59;3.70;99.90
4052;DHT22;2040;50.924;11.604;2023-02-01T06:51:26;3.70;99.90
4052;DHT22;2040;50.924;11.604;2023-02-01T06:53:53;3.70;99.90
4052;DHT22;2040;50.924;11.604;2023-02-01T06:56:20;3.70;99.90
4052;DHT22;2040;50.924;11.604;2023-02-01T06:58:46;3.60;99.90
4052;DHT22;2040;50.924;11.604;2023-02-01T07:01:12;3.60;99.90
4052;DHT22;2040;50.924;11.604;2023-02-01T07:03:38;3.50;99.90
4052;DHT22;2040;50.924;11.604;2023-02-01T07:06:04;3.50;99.90
4052;DHT22;2040;50.924;11.604;2023-02-01T07:08:31;3.50;99.90
4052;DHT22;2040;50.924;11.604;2023-02-01T07:11:01;3.60;99.90
4052;DHT22;2040;50.924;11.604;2023-02-01T07:13:27;3.50;99.90
4052;DHT22;2040;50.924;11.604;2023-02-01T07:15:52;3.50;99.90
4052;DHT22;2040;50.924;11.604;2023-02-01T07:18:18;3.60;99.90
4052;DHT22;2040;50.924;11.604;2023-02-01T07:20:49;3.70;99.90
4052;DHT22;2040;50.924;11.604;2023-02-01T07:23:15;3.60;99.90
4052;DHT22;2040;50.924;11.604;2023-02-01T07:25:40;3.60;99.90
4052;DHT22;2040;50.924;11.604;2023-02-01T07:28:06;3.60;99.90
4052;DHT22;2040;50.924;11.604;2023-02-01T07:30:31;3.60;99.90
4052;DHT22;2040;50.924;11.604;2023-02-01T07:32:57;3.70;99.90
4052;DHT22;2040;50.924;11.604;2023-02-01T07:35:29;3.80;99.90
4052;DHT22;2040;50.924;11.604;2023-02-01T07:37:55;3.90;99.90
4052;DHT22;2040;50.924;11.604;2023-02-01T07:40:23;4.00;99.90
4052;DHT22;2040;50.924;11.604;2023-02-01T07:42:56;4.10;99.90
4052;DHT22;2040;50.924;11.604;2023-02-01T07:45:23;4.10;99.90
4052;DHT22;2040;50.924;11.604;2023-02-01T07:47:48;4.20;99.90
4052;DHT22;2040;50.924;11.604;2023-02-01T07:50:16;4.20;99.90
4052;DHT22;2040;50.924;11.604;2023-02-01T07:52:42;4.20;99.90
4052;DHT22;2040;50.924;11.604;2023-02-01T07:55:08;4.20;99.90
4052;DHT22;2040;50.924;11.604;2023-02-01T07:57:33;4.30;99.90
4052;DHT22;2040;50.924;11.604;2023-02-01T07:59:59;4.30;99.90
4052;DHT22;2040;50.924;11.604;2023-02-01T08:02:43;4.30;99.90
4052;DHT22;2040;50.924;11.604;2023-02-01T08:05:09;4.30;99.90
4052;DHT22;2040;50.924;11.604;2023-02-01T08:07:34;4.30;99.90
4052;DHT22;2040;50.924;11.604;2023-02-01T08:10:00;4.30;99.90
4052;DHT22;2040;50.924;11.604;2023-02-01T08:12:26;4.30;99.90
4052;DHT22;2040;50.924;11.604;2023-02-01T08:14:52;4.20;99.90
4052;DHT22;2040;50.924;11.604;2023-02-01T08:17:18;4.30;99.90
4052;DHT22;2040;50.924;11.604;2023-02-01T08:19:44;4.30;99.90
4052;DHT22;2040;50.924;11.604;2023-02-01T08:22:09;4.30;99.90
4052;DHT22;2040;50.924;11.604;2023-02-01T08:24:35;4.30;99.90
4052;DHT22;2040;50.924;11.604;2023-02-01T08:27:03;4.30;99.90
4052;DHT22;2040;50.924;11.604;2023-02-01T08:29:28;4.30;99.90
4052;DHT22;2040;50.924;11.604;2023-02-01T08:31:54;4.40;99.90
4052;DHT22;2040;50.924;11.604;2023-02-01T08:34:20;4.50;99.90
4052;DHT22;2040;50.924;11.604;2023-02-01T08:36:45;4.60;99.90
4052;DHT22;2040;50.924;11.604;2023-02-01T08:39:11;4.70;99.90
4052;DHT22;2040;50.924;11.604;2023-02-01T08:41:38;4.70;99.90
4052;DHT22;2040;50.924;11.604;2023-02-01T08:44:03;4.70;99.90
4052;DHT22;2040;50.924;11.604;2023-02-01T08:46:29;4.60;99.90
4052;DHT22;2040;50.924;11.604;2023-02-01T08:48:55;4.60;99.90
4052;DHT22;2040;50.924;11.604;2023-02-01T08:51:22;4.50;99.90
4052;DHT22;2040;50.924;11.604;2023-02-01T08:53:48;4.40;99.90
4052;DHT22;2040;50.924;11.604;2023-02-01T08:56:16;4.40;99.90
4052;DHT22;2040;50.924;11.604;2023-02-01T08:58:42;4.40;99.90
4052;DHT22;2040;50.924;11.604;2023-02-01T09:01:10;4.40;99.90
4052;DHT22;2040;50.924;11.604;2023-02-01T09:03:36;4.30;99.90
4052;DHT22;2040;50.924;11.604;2023-02-01T09:06:03;4.30;99.90
4052;DHT22;2040;50.924;11.604;2023-02-01T09:08:29;4.30;99.90
4052;DHT22;2040;50.924;11.604;2023-02-01T09:11:04;4.30;99.90
4052;DHT22;2040;50.924;11.604;2023-02-01T09:13:30;4.40;99.90
4052;DHT22;2040;50.924;11.604;2023-02-01T09:15:55;4.50;99.90
4052;DHT22;2040;50.924;11.604;2023-02-01T09:18:21;4.40;99.90
4052;DHT22;2040;50.924;11.604;2023-02-01T09:20:47;4.40;99.90
4052;DHT22;2040;50.924;11.604;2023-02-01T09:23:12;4.40;99.90
4052;DHT22;2040;50.924;11.604;2023-02-01T09:25:38;4.40;99.90
4052;DHT22;2040;50.924;11.604;2023-02-01T09:28:04;4.50;99.90
4052;DHT22;2040;50.924;11.604;2023-02-01T09:30:32;4.70;99.90
4052;DHT22;2040;50.924;11.604;2023-02-01T09:32:58;4.80;99.90
4052;DHT22;2040;50.924;11.604;2023-02-01T09:35:24;4.90;99.90
4052;DHT22;2040;50.924;11.604;2023-02-01T09:37:49;4.80;99.90
4052;DHT22;2040;50.924;11.604;2023-02-01T09:40:16;4.80;99.90
4052;DHT22;2040;50.924;11.604;2023-02-01T09:43:00;4.70;99.90
4052;DHT22;2040;50.924;11.604;2023-02-01T09:48:22;5.00;99.90
4052;DHT22;2040;50.924;11.604;2023-02-01T09:50:53;5.00;99.90
4052;DHT22;2040;50.924;11.604;2023-02-01T09:53:21;5.10;99.90
4052;DHT22;2040;50.924;11.604;2023-02-01T09:55:50;5.20;99.90
4052;DHT22;2040;50.924;11.604;2023-02-01T09:58:59;5.30;99.90
4052;DHT22;2040;50.924;11.604;2023-02-01T10:01:18;5.40;99.90
4052;DHT22;2040;50.924;11.604;2023-02-01T10:03:44;5.60;99.90
4052;DHT22;2040;50.924;11.604;2023-02-01T10:09:15;5.40;99.90
4052;DHT22;2040;50.924;11.604;2023-02-01T10:22:43;5.40;99.90
4052;DHT22;2040;50.924;11.604;2023-02-01T10:25:52;5.40;99.90
4052;DHT22;2040;50.924;11.604;2023-02-01T10:28:18;5.60;99.90
4052;DHT22;2040;50.924;11.604;2023-02-01T10:30:48;5.80;99.90
4052;DHT22;2040;50.924;11.604;2023-02-01T10:33:25;5.70;99.90
4052;DHT22;2040;50.924;11.604;2023-02-01T10:36:04;5.50;99.90
4052;DHT22;2040;50.924;11.604;2023-02-01T10:38:35;5.50;99.90
4052;DHT22;2040;50.924;11.604;2023-02-01T10:41:08;5.60;99.90
4052;DHT22;2040;50.924;11.604;2023-02-01T10:43:37;5.70;99.90
4052;DHT22;2040;50.924;11.604;2023-02-01T10:46:04;6.00;99.90
4052;DHT22;2040;50.924;11.604;2023-02-01T10:48:31;6.10;99.90
4052;DHT22;2040;50.924;11.604;2023-02-01T10:51:10;6.10;99.90
4052;DHT22;2040;50.924;11.604;2023-02-01T10:56:12;6.30;99.90
4052;DHT22;2040;50.924;11.604;2023-02-01T10:58:46;6.10;99.90
4052;DHT22;2040;50.924;11.604;2023-02-01T11:01:31;6.30;99.90
4052;DHT22;2040;50.924;11.604;2023-02-01T11:04:00;6.50;99.90
4052;DHT22;2040;50.924;11.604;2023-02-01T11:06:32;6.60;99.90
4052;DHT22;2040;50.924;11.604;2023-02-01T11:09:09;6.70;99.90
4052;DHT22;2040;50.924;11.604;2023-02-01T11:15:01;6.60;99.90
4052;DHT22;2040;50.924;11.604;2023-02-01T11:19:47;6.40;99.90
4052;DHT22;2040;50.924;11.604;2023-02-01T11:22:13;6.30;99.90
4052;DHT22;2040;50.924;11.604;2023-02-01T11:24:40;6.40;99.90
4052;DHT22;2040;50.924;11.604;2023-02-01T11:27:16;6.30;99.90
4052;DHT22;2040;50.924;11.604;2023-02-01T11:29:44;6.40;99.90
4052;DHT22;2040;50.924;11.604;2023-02-01T11:32:13;6.60;99.90
4052;DHT22;2040;50.924;11.604;2023-02-01T11:34:54;6.60;99.90
4052;DHT22;2040;50.924;11.604;2023-02-01T11:37:40;6.60;99.90
4052;DHT22;2040;50.924;11.604;2023-02-01T11:42:58;6.60;99.90
4052;DHT22;2040;50.924;11.604;2023-02-01T11:45:34;6.60;99.90
4052;DHT22;2040;50.924;11.604;2023-02-01T11:48:10;6.50;99.90
4052;DHT22;2040;50.924;11.604;2023-02-01T11:50:45;6.60;99.90
4052;DHT22;2040;50.924;11.604;2023-02-01T12:04:39;6.50;99.90
4052;DHT22;2040;50.924;11.604;2023-02-01T12:07:23;6.50;99.90
4052;DHT22;2040;50.924;11.604;2023-02-01T12:10:05;6.40;99.90
4052;DHT22;2040;50.924;11.604;2023-02-01T12:15:40;6.40;99.90
4052;DHT22;2040;50.924;11.604;2023-02-01T12:18:54;6.40;99.90
4052;DHT22;2040;50.924;11.604;2023-02-01T12:21:23;6.50;99.90
4052;DHT22;2040;50.924;11.604;2023-02-01T12:24:18;6.40;99.90
4052;DHT22;2040;50.924;11.604;2023-02-01T12:27:23;6.30;99.90
4052;DHT22;2040;50.924;11.604;2023-02-01T12:30:10;6.30;99.90
4052;DHT22;2040;50.924;11.604;2023-02-01T12:32:49;6.40;99.90
4052;DHT22;2040;50.924;11.604;2023-02-01T12:35:35;6.20;99.90
4052;DHT22;2040;50.924;11.604;2023-02-01T12:38:22;6.30;99.90
4052;DHT22;2040;50.924;11.604;2023-02-01T12:41:12;6.20;99.90
4052;DHT22;2040;50.924;11.604;2023-02-01T12:46:52;6.30;99.90
4052;DHT22;2040;50.924;11.604;2023-02-01T12:49:47;6.20;99.90
4052;DHT22;2040;50.924;11.604;2023-02-01T12:52:19;6.20;99.90
4052;DHT22;2040;50.924;11.604;2023-02-01T12:57:35;6.20;99.90
4052;DHT22;2040;50.924;11.604;2023-02-01T13:00:07;6.20;99.90
4052;DHT22;2040;50.924;11.604;2023-02-01T13:02:48;6.10;99.90
4052;DHT22;2040;50.924;11.604;2023-02-01T13:05:18;6.10;99.90
4052;DHT22;2040;50.924;11.604;2023-02-01T13:08:01;6.00;99.90
4052;DHT22;2040;50.924;11.604;2023-02-01T13:10:47;6.00;99.90
4052;DHT22;2040;50.924;11.604;2023-02-01T13:16:01;5.90;99.90
4052;DHT22;2040;50.924;11.604;2023-02-01T13:18:37;5.90;99.90
4052;DHT22;2040;50.924;11.604;2023-02-01T13:21:24;6.00;99.90
4052;DHT22;2040;50.924;11.604;2023-02-01T13:23:52;5.90;99.90
4052;DHT22;2040;50.924;11.604;2023-02-01T13:26:17;5.90;99.90
4052;DHT22;2040;50.924;11.604;2023-02-01T13:28:58;5.80;99.90
4052;DHT22;2040;50.924;11.604;2023-02-01T13:40:21;5.70;99.90
4052;DHT22;2040;50.924;11.604;2023-02-01T13:42:53;5.70;99.90
4052;DHT22;2040;50.924;11.604;2023-02-01T13:45:23;5.70;99.90
4052;DHT22;2040;50.924;11.604;2023-02-01T13:47:53;5.60;99.90
4052;DHT22;2040;50.924;11.604;2023-02-01T13:50:26;5.70;99.90
4052;DHT22;2040;50.924;11.604;2023-02-01T13:52:54;5.70;99.90
4052;DHT22;2040;50.924;11.604;2023-02-01T13:57:47;5.70;99.90
4052;DHT22;2040;50.924;11.604;2023-02-01T14:10:59;6.00;99.90
4052;DHT22;2040;50.924;11.604;2023-02-01T14:13:38;5.90;99.90
4052;DHT22;2040;50.924;11.604;2023-02-01T14:21:31;5.90;99.90
4052;DHT22;2040;50.924;11.604;2023-02-01T14:26:47;5.80;99.90
4052;DHT22;2040;50.924;11.604;2023-02-01T14:34:29;5.90;99.90
4052;DHT22;2040;50.924;11.604;2023-02-01T14:37:02;5.90;99.90
4052;DHT22;2040;50.924;11.604;2023-02-01T14:39:35;5.80;99.90
4052;DHT22;2040;50.924;11.604;2023-02-01T14:42:13;5.80;99.90
4052;DHT22;2040;50.924;11.604;2023-02-01T14:44:39;5.80;99.90
4052;DHT22;2040;50.924;11.604;2023-02-01T14:53:10;5.80;99.90
4052;DHT22;2040;50.924;11.604;2023-02-01T14:55:56;5.80;99.90
4052;DHT22;2040;50.924;11.604;2023-02-01T15:01:50;6.00;99.90
4052;DHT22;2040;50.924;11.604;2023-02-01T15:04:13;6.00;99.90
4052;DHT22;2040;50.924;11.604;2023-02-01T15:06:54;5.80;99.90
4052;DHT22;2040;50.924;11.604;2023-02-01T15:09:28;5.80;99.90
4052;DHT22;2040;50.924;11.604;2023-02-01T15:17:37;5.60;99.90
4052;DHT22;2040;50.924;11.604;2023-02-01T15:20:15;5.60;99.90
4052;DHT22;2040;50.924;11.604;2023-02-01T15:22:42;5.50;99.90
4052;DHT22;2040;50.924;11.604;2023-02-01T15:25:34;5.50;99.90
4052;DHT22;2040;50.924;11.604;2023-02-01T15:28:02;5.50;99.90
4052;DHT22;2040;50.924;11.604;2023-02-01T15:30:30;5.50;99.90
4052;DHT22;2040;50.924;11.604;2023-02-01T15:33:13;5.40;99.90
4052;DHT22;2040;50.924;11.604;2023-02-01T15:35:43;5.40;99.90
4052;DHT22;2040;50.924;11.604;2023-02-01T15:40:59;5.40;99.90
4052;DHT22;2040;50.924;11.604;2023-02-01T15:43:27;5.30;99.90
4052;DHT22;2040;50.924;11.604;2023-02-01T15:46:00;5.20;99.90
4052;DHT22;2040;50.924;11.604;2023-02-01T15:48:48;5.10;99.90
4052;DHT22;2040;50.924;11.604;2023-02-01T15:51:17;5.10;99.90
4052;DHT22;2040;50.924;11.604;2023-02-01T15:53:46;5.10;99.90
4052;DHT22;2040;50.924;11.604;2023-02-01T15:56:13;5.00;99.90
4052;DHT22;2040;50.924;11.604;2023-02-01T15:58:42;5.10;99.90
4052;DHT22;2040;50.924;11.604;2023-02-01T16:01:11;5.10;99.90
4052;DHT22;2040;50.924;11.604;2023-02-01T16:03:41;5.10;99.90
4052;DHT22;2040;50.924;11.604;2023-02-01T16:09:00;5.10;99.90
4052;DHT22;2040;50.924;11.604;2023-02-01T16:11:41;5.10;99.90
4052;DHT22;2040;50.924;11.604;2023-02-01T16:14:06;5.20;99.90
4052;DHT22;2040;50.924;11.604;2023-02-01T16:16:32;5.20;99.90
4052;DHT22;2040;50.924;11.604;2023-02-01T16:18:57;5.10;99.90
4052;DHT22;2040;50.924;11.604;2023-02-01T16:21:23;5.10;99.90
4052;DHT22;2040;50.924;11.604;2023-02-01T16:23:52;5.20;99.90
4052;DHT22;2040;50.924;11.604;2023-02-01T16:26:19;5.20;99.90
4052;DHT22;2040;50.924;11.604;2023-02-01T16:28:45;5.20;99.90
4052;DHT22;2040;50.924;11.604;2023-02-01T16:31:15;5.20;99.90
4052;DHT22;2040;50.924;11.604;2023-02-01T16:33:48;5.20;99.90
4052;DHT22;2040;50.924;11.604;2023-02-01T16:36:14;5.20;99.90
4052;DHT22;2040;50.924;11.604;2023-02-01T16:38:40;5.20;99.90
4052;DHT22;2040;50.924;11.604;2023-02-01T16:41:06;5.30;99.90
4052;DHT22;2040;50.924;11.604;2023-02-01T16:43:33;5.30;99.90
4052;DHT22;2040;50.924;11.604;2023-02-01T16:46:00;5.40;99.90
4052;DHT22;2040;50.924;11.604;2023-02-01T16:48:33;5.40;99.90
4052;DHT22;2040;50.924;11.604;2023-02-01T16:51:02;5.40;99.90
4052;DHT22;2040;50.924;11.604;2023-02-01T16:53:30;5.50;99.90
4052;DHT22;2040;50.924;11.604;2023-02-01T16:55:56;5.50;99.90
4052;DHT22;2040;50.924;11.604;2023-02-01T16:58:26;5.30;99.90
4052;DHT22;2040;50.924;11.604;2023-02-01T17:00:52;4.90;99.90
4052;DHT22;2040;50.924;11.604;2023-02-01T17:03:19;3.60;99.90
4052;DHT22;2040;50.924;11.604;2023-02-01T17:05:52;2.40;99.90
4052;DHT22;2040;50.924;11.604;2023-02-01T17:08:27;1.90;99.90
4052;DHT22;2040;50.924;11.604;2023-02-01T17:10:53;1.80;99.90
4052;DHT22;2040;50.924;11.604;2023-02-01T17:13:19;1.70;99.90
4052;DHT22;2040;50.924;11.604;2023-02-01T17:16:12;1.60;99.90
4052;DHT22;2040;50.924;11.604;2023-02-01T17:18:40;1.50;99.90
4052;DHT22;2040;50.924;11.604;2023-02-01T17:21:06;1.40;99.90
4052;DHT22;2040;50.924;11.604;2023-02-01T17:23:32;1.40;99.90
4052;DHT22;2040;50.924;11.604;2023-02-01T17:25:58;1.40;99.90
4052;DHT22;2040;50.924;11.604;2023-02-01T17:28:24;1.50;99.90
4052;DHT22;2040;50.924;11.604;2023-02-01T17:30:50;1.50;99.90
4052;DHT22;2040;50.924;11.604;2023-02-01T17:33:23;1.40;99.90
4052;DHT22;2040;50.924;11.604;2023-02-01T17:35:49;1.40;99.90
4052;DHT22;2040;50.924;11.604;2023-02-01T17:38:15;1.40;99.90
4052;DHT22;2040;50.924;11.604;2023-02-01T17:40:41;1.20;99.90
4052;DHT22;2040;50.924;11.604;2023-02-01T17:43:15;1.10;99.90
4052;DHT22;2040;50.924;11.604;2023-02-01T17:46:00;1.10;99.90
4052;DHT22;2040;50.924;11.604;2023-02-01T17:48:26;1.10;99.90
4052;DHT22;2040;50.924;11.604;2023-02-01T17:50:52;1.10;99.90
4052;DHT22;2040;50.924;11.604;2023-02-01T17:53:27;1.10;99.90
4052;DHT22;2040;50.924;11.604;2023-02-01T17:55:53;1.20;99.90
4052;DHT22;2040;50.924;11.604;2023-02-01T17:58:21;1.20;99.90
4052;DHT22;2040;50.924;11.604;2023-02-01T18:00:47;1.20;99.90
4052;DHT22;2040;50.924;11.604;2023-02-01T18:03:27;1.30;99.90
4052;DHT22;2040;50.924;11.604;2023-02-01T18:05:54;1.30;99.90
4052;DHT22;2040;50.924;11.604;2023-02-01T18:08:25;1.30;99.90
4052;DHT22;2040;50.924;11.604;2023-02-01T18:10:54;1.30;99.90
4052;DHT22;2040;50.924;11.604;2023-02-01T18:13:20;1.60;99.90
4052;DHT22;2040;50.924;11.604;2023-02-01T18:15:46;1.70;99.90
4052;DHT22;2040;50.924;11.604;2023-02-01T18:18:12;1.70;99.90
4052;DHT22;2040;50.924;11.604;2023-02-01T18:20:40;1.80;99.90
4052;DHT22;2040;50.924;11.604;2023-02-01T18:23:18;1.90;99.90
4052;DHT22;2040;50.924;11.604;2023-02-01T18:25:45;1.90;99.90
4052;DHT22;2040;50.924;11.604;2023-02-01T18:28:12;2.10;99.90